Time;durP1;ratioP1;P1;durP2;ratioP2;P2;SDS_P1;SDS_P2;PMS_P1;PMS_P2;Temp;Humidity;BMP_temperature;BMP_pressure;BME280_temperature;BME280_humidity;BME280_pressure;Samples;Min_cycle;Max_cycle;Signal;HPM_P1;HPM_P2
2022/08/06 00:02:23;;;;;;;8.55;7.85;;;;;;;22.28;73.09;100804.16;5080022;27;102609;-56
2022/08/06 00:04:50;;;;;;;7.18;6.57;;;;;;;22.29;73.29;100799.47;5072103;27;104037;-56
2022/08/06 00:07:18;;;;;;;8.00;7.30;;;;;;;22.29;73.28;100800.25;5079861;27;102289;-56
2022/08/06 00:09:45;;;;;;;7.88;7.18;;;;;;;22.29;73.19;100800.25;5077665;27;102382;-56
2022/08/06 00:12:15;;;;;;;7.85;7.20;;;;;;;22.28;73.16;100800.59;5062441;27;102215;-56
2022/08/06 00:14:41;;;;;;;8.13;7.33;;;;;;;22.28;72.99;100798.63;5059667;27;104372;-56
2022/08/06 00:17:08;;;;;;;8.27;7.57;;;;;;;22.28;73.23;100795.03;5059254;27;102170;-56
2022/08/06 00:19:34;;;;;;;8.68;7.90;;;;;;;22.29;73.21;100788.38;5047784;27;102096;-56
2022/08/06 00:22:01;;;;;;;7.47;6.88;;;;;;;22.28;73.20;100798.63;5037970;27;102247;-56
2022/08/06 00:24:29;;;;;;;8.00;7.30;;;;;;;22.27;73.21;100796.22;5061339;27;104237;-56
2022/08/06 00:26:55;;;;;;;8.37;7.60;;;;;;;22.26;73.23;100798.19;5089863;27;102416;-56
2022/08/06 00:29:22;;;;;;;7.82;7.13;;;;;;;22.27;73.20;100798.97;5087279;27;102061;-56
2022/08/06 00:31:48;;;;;;;8.43;7.72;;;;;;;22.27;73.06;100790.66;5079710;27;102525;-56
2022/08/06 00:34:15;;;;;;;8.02;7.32;;;;;;;22.26;73.11;100800.94;5077275;27;104247;-56
2022/08/06 00:36:42;;;;;;;7.80;7.10;;;;;;;22.27;73.24;100779.56;5078359;27;102070;-57
2022/08/06 00:39:08;;;;;;;7.75;7.07;;;;;;;22.27;73.00;100796.22;5077655;27;102212;-56
2022/08/06 00:41:37;;;;;;;8.32;7.63;;;;;;;22.27;73.35;100808.09;5079264;27;101985;-56
2022/08/06 00:44:04;;;;;;;8.45;7.75;;;;;;;22.27;73.03;100802.56;5066493;27;104001;-58
2022/08/06 00:46:31;;;;;;;8.40;7.65;;;;;;;22.27;73.29;100802.56;5078085;27;102582;-56
2022/08/06 00:48:58;;;;;;;8.43;7.73;;;;;;;22.26;72.99;100812.03;5077644;27;102224;-56
2022/08/06 00:51:25;;;;;;;7.85;7.15;;;;;;;22.26;73.12;100808.47;5094875;27;102385;-56
2022/08/06 00:53:52;;;;;;;8.18;7.47;;;;;;;22.26;73.15;100811.25;5068885;27;103830;-57
2022/08/06 00:56:20;;;;;;;8.10;7.40;;;;;;;22.26;73.13;100803.72;5068529;27;102292;-57
2022/08/06 00:58:48;;;;;;;8.52;7.75;;;;;;;22.26;73.16;100805.69;5072195;27;102124;-56
2022/08/06 01:01:14;;;;;;;8.60;7.90;;;;;;;22.26;73.11;100798.19;5079088;27;102287;-56
2022/08/06 01:03:41;;;;;;;8.70;7.90;;;;;;;22.26;73.09;100803.72;5082199;27;103869;-56
2022/08/06 01:06:08;;;;;;;8.07;7.38;;;;;;;22.26;73.16;100800.16;5082984;27;102335;-56
2022/08/06 01:08:34;;;;;;;9.13;8.30;;;;;;;22.26;73.02;100800.16;5093907;27;102337;-56
2022/08/06 01:11:01;;;;;;;9.00;8.20;;;;;;;22.25;73.23;100804.06;5098445;27;102295;-56
2022/08/06 01:13:28;;;;;;;8.43;7.72;;;;;;;22.25;73.31;100804.88;5081266;27;103489;-56
2022/08/06 01:16:07;;;;;;;9.30;8.40;;;;;;;22.25;73.18;100806.81;5078223;27;102558;-57
2022/08/06 01:18:45;;;;;;;8.85;8.13;;;;;;;22.25;73.20;100809.59;5077224;27;102190;-56
2022/08/06 01:21:29;;;;;;;10.02;8.73;;;;;;;22.26;72.94;100811.25;5099093;27;102259;-55
2022/08/06 01:24:23;;;;;;;9.43;8.52;;;;;;;22.25;73.21;100804.88;5078211;27;103866;-56
2022/08/06 01:26:53;;;;;;;9.70;8.88;;;;;;;22.26;72.99;100794.59;5077933;27;102156;-56
2022/08/06 01:29:24;;;;;;;9.27;8.38;;;;;;;22.25;73.19;100806.81;5084041;27;102283;-56
2022/08/06 01:31:54;;;;;;;8.95;8.15;;;;;;;22.25;73.14;100804.88;5099599;27;102359;-56
2022/08/06 01:34:27;;;;;;;8.90;8.20;;;;;;;22.23;73.18;100807.19;5090467;27;103916;-56
2022/08/06 01:37:01;;;;;;;8.82;8.02;;;;;;;22.23;73.17;100807.19;5078222;27;102144;-56
2022/08/06 01:39:30;;;;;;;9.32;8.43;;;;;;;22.23;73.25;100807.19;5091090;27;102652;-56
2022/08/06 01:41:57;;;;;;;;;;;;;;;22.25;73.19;100804.06;5084450;27;102212;-56
2022/08/06 01:44:30;;;;;;;8.75;7.95;;;;;;;22.24;73.02;100799.69;5087966;27;103928;-56
2022/08/06 01:47:05;;;;;;;9.40;8.60;;;;;;;22.23;73.16;100801.66;5098542;27;102092;-56
2022/08/06 01:49:36;;;;;;;9.77;8.88;;;;;;;22.24;73.05;100808.81;5097451;27;102325;-56
2022/08/06 01:52:05;;;;;;;9.52;8.73;;;;;;;22.23;73.10;100809.97;5099277;27;102192;-56
2022/08/06 01:54:38;;;;;;;10.02;9.05;;;;;;;22.23;73.03;100801.66;5096447;27;103844;-56
2022/08/06 01:57:07;;;;;;;10.82;8.90;;;;;;;22.25;73.19;100804.88;5098626;27;102253;-56
2022/08/06 01:59:41;;;;;;;13.75;8.75;;;;;;;22.23;73.17;100807.19;5097277;27;102288;-56
2022/08/06 02:02:12;;;;;;;10.60;8.70;;;;;;;22.22;73.15;100802.81;5084404;27;104432;-56
2022/08/06 02:04:42;;;;;;;31.65;8.68;;;;;;;22.22;73.09;100793.69;5093726;27;104264;-57
2022/08/06 02:07:11;;;;;;;9.65;8.80;;;;;;;22.21;73.15;100803.94;5077277;27;102060;-55
2022/08/06 02:09:41;;;;;;;10.77;9.05;;;;;;;22.22;73.18;100808.34;5076901;27;101957;-55
2022/08/06 02:12:11;;;;;;;9.95;8.93;;;;;;;22.21;73.10;100809.50;5065964;27;102281;-56
2022/08/06 02:14:44;;;;;;;9.38;8.50;;;;;;;22.21;73.29;100803.94;5057971;27;103957;-56
2022/08/06 02:17:12;;;;;;;10.40;9.40;;;;;;;22.22;73.08;100811.13;5066815;27;102292;-56
2022/08/06 02:19:43;;;;;;;10.17;9.27;;;;;;;22.22;73.14;100805.59;5059481;27;102502;-56
2022/08/06 02:22:09;;;;;;;9.52;8.63;;;;;;;22.22;73.04;100807.56;5075763;27;102057;-56
2022/08/06 02:24:38;;;;;;;9.73;8.82;;;;;;;22.22;73.32;100810.31;5075008;27;103461;-56
2022/08/06 02:27:07;;;;;;;9.73;8.73;;;;;;;22.21;73.14;100809.50;5077024;27;102051;-56
2022/08/06 02:29:37;;;;;;;9.60;8.70;;;;;;;22.21;73.15;100812.25;5077030;27;102182;-56
2022/08/06 02:32:05;;;;;;;9.65;8.73;;;;;;;22.22;73.13;100805.59;5077784;27;102223;-57
2022/08/06 02:34:32;;;;;;;;;;;;;;;22.21;73.31;100815.03;5076877;27;104101;-56
2022/08/06 02:37:05;;;;;;;9.30;8.40;;;;;;;22.21;73.21;100803.94;5077366;27;102536;-56
2022/08/06 02:39:36;;;;;;;9.77;8.88;;;;;;;22.21;73.14;100806.72;5076717;27;102368;-56
2022/08/06 02:42:11;;;;;;;11.10;8.88;;;;;;;22.21;73.14;100806.72;5077306;27;102593;-56
2022/08/06 02:44:44;;;;;;;10.00;9.10;;;;;;;22.21;73.03;100803.94;5072453;27;104067;-56
2022/08/06 02:47:17;;;;;;;9.85;8.93;;;;;;;22.20;73.41;100816.19;5060137;27;102320;-56
2022/08/06 02:49:48;;;;;;;10.52;9.50;;;;;;;22.21;73.06;100823.34;5088100;27;102292;-56
2022/08/06 02:52:17;;;;;;;10.38;9.38;;;;;;;22.21;73.22;100817.81;5095844;27;102277;-56
2022/08/06 02:54:55;;;;;;;10.23;9.07;;;;;;;22.21;73.24;100815.03;5100125;27;103806;-56
2022/08/06 02:57:25;;;;;;;10.53;9.53;;;;;;;22.21;73.11;100815.03;5099905;27;102451;-56
2022/08/06 02:59:57;;;;;;;9.65;8.75;;;;;;;22.21;73.18;100819.78;5098143;27;102074;-56
2022/08/06 03:02:28;;;;;;;10.70;9.43;;;;;;;22.20;73.33;100816.19;5100768;27;102088;-56
2022/08/06 03:04:57;;;;;;;9.40;8.57;;;;;;;22.21;73.16;100817.00;5099249;27;103836;-56
2022/08/06 03:07:26;;;;;;;10.20;9.20;;;;;;;22.21;73.21;100809.50;5100315;27;101973;-56
2022/08/06 03:09:54;;;;;;;10.10;9.10;;;;;;;22.21;73.09;100820.56;5100581;27;102569;-56
2022/08/06 03:12:21;;;;;;;10.50;9.60;;;;;;;22.20;73.12;100823.72;5100613;27;102640;-56
2022/08/06 03:14:48;;;;;;;10.15;9.18;;;;;;;22.19;73.23;100817.38;5079368;27;108018;-56
2022/08/06 03:17:16;;;;;;;10.65;9.65;;;;;;;22.21;73.18;100822.53;5099062;27;102174;-55
2022/08/06 03:19:45;;;;;;;9.45;8.65;;;;;;;22.20;73.05;100824.50;5079768;27;102292;-56
2022/08/06 03:22:13;;;;;;;10.05;9.15;;;;;;;22.20;73.16;100835.59;5081116;27;102123;-56
2022/08/06 03:24:42;;;;;;;9.93;8.93;;;;;;;22.20;73.00;100838.38;5078063;27;103796;-55
2022/08/06 03:27:11;;;;;;;10.75;9.75;;;;;;;22.20;73.31;100835.59;5080201;27;102600;-56
2022/08/06 03:29:42;;;;;;;10.48;9.48;;;;;;;22.20;73.15;100827.28;5079181;27;102249;-56
2022/08/06 03:32:11;;;;;;;10.32;9.35;;;;;;;22.21;73.16;100841.94;5080433;27;102327;-55
2022/08/06 03:34:39;;;;;;;10.13;9.23;;;;;;;22.21;73.24;100834.44;5078676;27;103958;-56
2022/08/06 03:37:09;;;;;;;10.13;9.23;;;;;;;22.20;73.12;100835.59;5079721;27;102222;-56
2022/08/06 03:39:39;;;;;;;10.02;9.10;;;;;;;22.21;73.03;100841.94;5078333;27;102196;-56
2022/08/06 03:42:07;;;;;;;9.85;8.95;;;;;;;22.20;73.04;100838.38;5080625;27;102443;-56
2022/08/06 03:44:34;;;;;;;9.63;8.80;;;;;;;22.20;73.06;100832.84;5077170;27;103901;-56
2022/08/06 03:47:06;;;;;;;10.40;9.40;;;;;;;22.22;73.27;100827.75;5079486;27;102379;-56
2022/08/06 03:49:37;;;;;;;9.77;8.98;;;;;;;22.21;73.10;100828.88;5087054;27;102236;-56
2022/08/06 03:52:08;;;;;;;10.63;9.63;;;;;;;22.22;73.18;100835.28;5099295;27;102269;-56
2022/08/06 03:54:40;;;;;;;10.25;9.35;;;;;;;22.23;73.27;100828.56;5086232;27;104131;-56
2022/08/06 03:57:11;;;;;;;10.65;9.65;;;;;;;22.23;72.99;100834.91;5078754;27;101895;-56
2022/08/06 03:59:42;;;;;;;10.57;9.40;;;;;;;22.26;73.13;100834.22;5078707;27;102081;-56
2022/08/06 04:02:10;;;;;;;9.95;9.05;;;;;;;22.26;72.93;100839.75;5089775;27;102108;-56
2022/08/06 04:04:37;;;;;;;9.70;8.83;;;;;;;22.26;73.04;100839.75;5099304;27;103938;-56
2022/08/06 04:07:05;;;;;;;11.35;9.68;;;;;;;22.28;72.59;100848.53;5100249;27;102446;-56
2022/08/06 04:09:34;;;;;;;10.45;9.45;;;;;;;22.28;73.05;100854.06;5099167;27;102576;-56
2022/08/06 04:12:03;;;;;;;10.85;9.88;;;;;;;22.29;72.99;100843.81;5100656;27;102294;-56
2022/08/06 04:14:30;;;;;;;10.95;9.95;;;;;;;22.29;72.89;100841.03;5097992;27;104065;-56
2022/08/06 04:16:58;;;;;;;10.60;9.68;;;;;;;22.29;72.86;100839.06;5084634;27;102026;-56
2022/08/06 04:19:26;;;;;;;10.80;9.87;;;;;;;22.29;72.70;100830.75;5078767;27;102256;-56
2022/08/06 04:21:52;;;;;;;10.45;9.45;;;;;;;22.29;72.94;100836.31;5095605;27;102237;-56
2022/08/06 04:24:19;;;;;;;11.75;10.65;;;;;;;22.31;72.79;100835.94;5095494;27;103832;-56
2022/08/06 04:26:50;;;;;;;10.45;9.55;;;;;;;22.31;72.95;100836.75;5078650;27;102565;-56
2022/08/06 04:29:19;;;;;;;11.20;10.20;;;;;;;22.31;72.79;100836.75;5092273;27;102179;-56
2022/08/06 04:31:50;;;;;;;11.52;10.52;;;;;;;22.31;72.88;100836.75;5069221;27;102343;-56
2022/08/06 04:34:21;;;;;;;10.65;9.73;;;;;;;22.33;72.96;100832.84;5077718;27;103795;-58
2022/08/06 04:36:48;;;;;;;11.25;10.25;;;;;;;22.33;72.93;100832.84;5097670;27;102386;-56
2022/08/06 04:39:16;;;;;;;10.70;9.80;;;;;;;22.34;72.84;100845.53;5099146;27;102228;-56
2022/08/06 04:41:43;;;;;;;10.50;9.60;;;;;;;22.33;72.86;100833.63;5090885;27;102228;-56
2022/08/06 04:44:11;;;;;;;11.27;10.18;;;;;;;22.35;72.92;100844.38;5067445;27;103888;-56
2022/08/06 04:46:38;;;;;;;10.93;9.80;;;;;;;22.36;72.83;100846.81;5078549;27;102285;-56
2022/08/06 04:49:05;;;;;;;10.60;9.70;;;;;;;22.37;72.51;100842.06;5097181;27;102022;-56
2022/08/06 04:51:34;;;;;;;11.52;10.32;;;;;;;22.37;72.62;100842.06;5079496;27;102273;-56
2022/08/06 04:54:05;;;;;;;10.80;9.70;;;;;;;22.36;72.91;100841.28;5079343;27;104149;-56
2022/08/06 04:56:32;;;;;;;11.20;10.18;;;;;;;22.37;72.80;100844.84;5064672;27;102413;-56
2022/08/06 04:58:58;;;;;;;10.75;9.75;;;;;;;22.39;72.76;100845.28;5074058;27;102645;-56
2022/08/06 05:01:26;;;;;;;10.73;9.80;;;;;;;22.38;72.54;100854.78;5069130;27;102446;-55
2022/08/06 05:03:53;;;;;;;11.73;10.67;;;;;;;22.39;72.61;100850.84;5062733;27;103875;-56
2022/08/06 05:06:29;;;;;;;11.35;10.25;;;;;;;22.40;72.53;100858.03;5077629;27;102355;-56
2022/08/06 05:09:02;;;;;;;11.32;10.30;;;;;;;22.40;72.49;100855.25;5077641;27;102181;-56
2022/08/06 05:11:35;;;;;;;12.23;11.13;;;;;;;22.40;72.89;100844.16;5079220;27;102497;-56
2022/08/06 05:14:05;;;;;;;12.10;11.00;;;;;;;22.41;72.95;100848.53;5076418;27;103913;-56
2022/08/06 05:16:37;;;;;;;12.38;11.18;;;;;;;22.41;72.55;100851.31;5078543;27;102196;-56
2022/08/06 05:19:09;;;;;;;13.88;12.57;;;;;;;22.44;72.67;100853.38;5077372;27;102149;-56
2022/08/06 05:21:39;;;;;;;13.70;12.35;;;;;;;22.45;72.65;100843.91;5078951;27;102143;-56
2022/08/06 05:24:07;;;;;;;13.18;12.05;;;;;;;22.46;72.40;100851.06;5071728;27;104075;-56
2022/08/06 05:26:34;;;;;;;13.90;12.60;;;;;;;22.46;72.67;100849.09;5078032;27;102415;-56
2022/08/06 05:29:01;;;;;;;15.02;13.50;;;;;;;22.47;72.58;100850.72;5077635;27;102219;-56
2022/08/06 05:31:29;;;;;;;12.95;11.77;;;;;;;22.48;72.52;100845.97;5082872;27;102589;-56
2022/08/06 05:33:57;;;;;;;14.68;13.15;;;;;;;22.51;72.49;100845.28;5074486;27;104523;-56
2022/08/06 05:36:24;;;;;;;13.35;12.20;;;;;;;22.51;72.49;100846.09;5070527;27;102678;-56
2022/08/06 05:38:50;;;;;;;14.63;13.23;;;;;;;22.54;72.23;100839.84;5076698;27;101854;-56
2022/08/06 05:41:17;;;;;;;12.98;11.77;;;;;;;22.55;72.06;100847.00;5074126;27;102223;-56
2022/08/06 05:43:44;;;;;;;12.95;11.85;;;;;;;22.58;71.74;100850.25;5076841;27;104061;-56
2022/08/06 05:46:14;;;;;;;13.77;12.40;;;;;;;22.59;71.72;100852.66;5074343;27;102278;-56
2022/08/06 05:48:45;;;;;;;13.82;12.43;;;;;;;22.61;71.66;100855.91;5077916;27;102297;-56
2022/08/06 05:51:22;;;;;;;14.02;12.73;;;;;;;22.63;71.55;100848.03;5083486;27;102130;-56
2022/08/06 05:53:57;;;;;;;13.50;12.13;;;;;;;22.66;71.60;100847.34;5077182;27;103920;-56
2022/08/06 05:56:27;;;;;;;12.55;11.40;;;;;;;22.67;71.38;100843.41;5067249;27;102130;-56
2022/08/06 05:58:58;;;;;;;13.55;12.27;;;;;;;22.69;71.45;100846.63;5058725;27;101898;-56
2022/08/06 06:01:25;;;;;;;13.77;12.48;;;;;;;22.71;71.50;100851.81;5078633;27;102125;-56
2022/08/06 06:03:54;;;;;;;13.77;12.50;;;;;;;22.72;71.48;100851.50;5075822;27;103870;-56
2022/08/06 06:06:23;;;;;;;13.60;12.35;;;;;;;22.73;71.25;100846.75;5077380;27;102822;-56
2022/08/06 06:08:50;;;;;;;13.32;12.13;;;;;;;22.75;71.16;100844.41;5064660;27;101868;-56
2022/08/06 06:11:17;;;;;;;12.65;11.48;;;;;;;22.78;71.32;100835.38;5061898;27;102302;-56
2022/08/06 06:13:45;;;;;;;13.45;12.13;;;;;;;22.81;71.45;100836.66;5070158;27;103905;-56
2022/08/06 06:16:22;;;;;;;13.30;12.00;;;;;;;22.82;71.16;100835.50;5077561;27;102537;-56
2022/08/06 06:19:01;;;;;;;14.10;12.77;;;;;;;22.83;71.17;100837.09;5076084;27;102068;-56
2022/08/06 06:21:40;;;;;;;13.55;12.25;;;;;;;22.83;71.13;100840.72;5081521;27;102254;-56
2022/08/06 06:24:15;;;;;;;13.90;12.60;;;;;;;22.83;70.94;100837.09;5079841;27;103969;-56
2022/08/06 06:26:48;;;;;;;12.57;11.27;;;;;;;22.85;70.95;100834.78;5081446;27;101890;-56
2022/08/06 06:29:26;;;;;;;13.30;12.07;;;;;;;22.88;71.06;100842.44;5079551;27;102678;-56
2022/08/06 06:32:01;;;;;;;12.25;11.10;;;;;;;22.88;70.92;100836.88;5076536;27;102151;-56
2022/08/06 06:34:41;;;;;;;13.85;12.20;;;;;;;22.88;71.06;100843.22;5079899;27;104142;-56
2022/08/06 06:37:19;;;;;;;12.82;11.02;;;;;;;22.89;70.96;100839.28;5081125;27;102099;-56
2022/08/06 06:40:01;;;;;;;13.38;12.15;;;;;;;22.90;70.97;100834.53;5080527;27;102412;-56
2022/08/06 06:42:34;;;;;;;12.38;11.18;;;;;;;22.91;71.00;100838.94;5081980;27;102321;-56
2022/08/06 06:45:07;;;;;;;11.07;10.05;;;;;;;22.92;70.89;100843.38;5082043;27;105514;-56
2022/08/06 06:47:41;;;;;;;11.75;10.65;;;;;;;22.94;70.82;100835.50;5079972;27;102228;-56
2022/08/06 06:50:13;;;;;;;12.85;11.55;;;;;;;22.94;70.74;100835.50;5102774;27;103754;-56
2022/08/06 06:52:44;;;;;;;11.73;10.73;;;;;;;22.94;70.96;100835.50;5076983;27;102724;-56
2022/08/06 06:55:20;;;;;;;11.88;10.77;;;;;;;22.95;70.91;100842.66;5068153;27;104160;-56
2022/08/06 06:57:54;;;;;;;12.15;10.95;;;;;;;22.98;70.54;100836.41;5073329;27;102238;-56
2022/08/06 07:00:21;;;;;;;10.68;9.70;;;;;;;23.00;70.65;100834.88;5083339;27;102470;-56
2022/08/06 07:02:49;;;;;;;11.57;10.38;;;;;;;23.00;70.38;100834.06;5113884;27;102170;-56
2022/08/06 07:05:18;;;;;;;11.90;10.70;;;;;;;23.01;70.63;100833.75;5080574;27;103970;-56
2022/08/06 07:07:48;;;;;;;11.32;10.27;;;;;;;23.04;70.44;100834.97;5063979;27;102141;-56
2022/08/06 07:10:18;;;;;;;11.38;10.10;;;;;;;23.05;70.19;100833.84;5058862;27;102020;-56
2022/08/06 07:12:46;;;;;;;11.30;10.20;;;;;;;23.04;70.36;100832.22;5070180;27;103003;-56
2022/08/06 07:15:15;;;;;;;12.00;10.80;;;;;;;23.04;70.44;100829.44;5076485;27;104221;-56
2022/08/06 07:17:43;;;;;;;11.77;10.60;;;;;;;23.05;70.38;100828.28;5079444;27;101942;-56
2022/08/06 07:20:12;;;;;;;10.90;9.90;;;;;;;23.06;70.50;100831.88;5076663;27;102187;-56
2022/08/06 07:22:42;;;;;;;10.65;9.55;;;;;;;23.06;70.40;100838.22;5078951;27;102556;-56
2022/08/06 07:25:13;;;;;;;11.63;9.68;;;;;;;23.09;70.37;100837.53;5089695;27;103956;-56
2022/08/06 07:27:42;;;;;;;10.48;9.48;;;;;;;23.10;70.30;100833.56;5099699;27;102269;-56
2022/08/06 07:30:10;;;;;;;10.52;9.60;;;;;;;23.12;70.20;100836.00;5099731;27;102219;-56
2022/08/06 07:32:38;;;;;;;11.20;10.10;;;;;;;23.12;70.06;100828.50;5101750;27;102658;-56
2022/08/06 07:35:07;;;;;;;10.97;10.00;;;;;;;23.14;70.23;100836.44;5099241;27;103966;-56
2022/08/06 07:37:36;;;;;;;11.00;9.90;;;;;;;23.16;70.20;100825.81;5118297;27;102243;-56
2022/08/06 07:40:06;;;;;;;11.00;10.07;;;;;;;23.14;70.31;100831.72;5082492;27;102064;-56
2022/08/06 07:42:36;;;;;;;12.85;9.98;;;;;;;23.15;70.16;100827.78;5079431;27;102201;-56
2022/08/06 07:45:05;;;;;;;10.60;9.60;;;;;;;23.16;70.32;100832.16;5074520;27;103910;-56
2022/08/06 07:47:37;;;;;;;11.38;10.35;;;;;;;23.15;70.03;100833.34;5075773;27;102886;-56
2022/08/06 07:50:06;;;;;;;11.75;10.25;;;;;;;23.16;70.12;100834.16;5074074;27;102224;-56
2022/08/06 07:52:34;;;;;;;10.43;9.38;;;;;;;23.16;70.20;100826.63;5075365;27;102312;-56
2022/08/06 07:55:00;;;;;;;12.52;10.30;;;;;;;23.17;70.25;100821.88;5078473;27;104212;-56
2022/08/06 07:57:30;;;;;;;11.35;10.25;;;;;;;23.17;70.11;100832.97;5079625;27;101907;-56
2022/08/06 07:59:58;;;;;;;10.63;9.73;;;;;;;23.19;70.00;100831.47;5078821;27;102099;-56
2022/08/06 08:02:25;;;;;;;10.93;9.90;;;;;;;23.19;70.16;100825.91;5099272;27;102288;-56
2022/08/06 08:07:38;;;;;;;10.68;9.68;;;;;;;23.19;70.08;100831.47;5071968;27;101989;-56
2022/08/06 08:10:06;;;;;;;11.07;9.95;;;;;;;23.22;69.91;100835.47;5078982;27;102221;-56
2022/08/06 08:12:36;;;;;;;10.45;9.35;;;;;;;23.21;69.99;100834.69;5080059;27;101988;-56
2022/08/06 08:15:06;;;;;;;11.00;10.10;;;;;;;23.19;70.03;100837.03;5078594;27;103859;-56
2022/08/06 08:17:33;;;;;;;10.20;9.30;;;;;;;23.20;69.93;100827.53;5079414;27;102198;-56
2022/08/06 08:20:03;;;;;;;9.73;8.88;;;;;;;23.19;69.85;100830.66;5078642;27;102211;-56
2022/08/06 08:22:30;;;;;;;10.85;9.85;;;;;;;23.20;69.92;100829.50;5080044;27;102228;-56
2022/08/06 08:24:56;;;;;;;10.30;9.30;;;;;;;23.20;69.71;100827.53;5085389;27;103948;-56
2022/08/06 08:27:23;;;;;;;10.73;9.75;;;;;;;23.21;70.13;100834.69;5099571;27;102260;-56
2022/08/06 08:29:50;;;;;;;12.07;8.80;;;;;;;23.23;69.88;100837.91;5099263;27;101815;-56
2022/08/06 08:32:18;;;;;;;10.50;9.60;;;;;;;23.25;70.08;100835.59;5100255;27;102146;-56
2022/08/06 08:34:45;;;;;;;10.65;9.52;;;;;;;23.25;69.89;100841.13;5098456;27;104025;-57
2022/08/06 08:37:11;;;;;;;9.98;8.93;;;;;;;23.27;69.81;100843.56;5099562;27;102263;-56
2022/08/06 08:39:38;;;;;;;10.20;9.20;;;;;;;23.26;69.85;100844.72;5098971;27;102009;-56
2022/08/06 08:42:10;;;;;;;9.52;8.57;;;;;;;23.24;69.90;100833.97;5099452;27;102239;-56
2022/08/06 08:44:39;;;;;;;10.73;9.90;;;;;;;23.23;69.85;100831.56;5088473;27;104027;-56
2022/08/06 08:47:09;;;;;;;10.18;9.27;;;;;;;23.21;69.84;100834.69;5077708;27;102419;-56
2022/08/06 08:49:39;;;;;;;10.70;9.40;;;;;;;23.22;69.92;100841.88;5077238;27;102200;-57
2022/08/06 08:52:08;;;;;;;9.45;8.57;;;;;;;23.25;69.72;100841.13;5078863;27;102237;-56
2022/08/06 08:54:36;;;;;;;9.07;8.27;;;;;;;23.25;69.86;100835.59;5077624;27;103996;-56
2022/08/06 08:57:04;;;;;;;9.18;8.38;;;;;;;23.24;69.79;100839.53;5063092;27;102506;-56
2022/08/06 08:59:32;;;;;;;9.10;8.30;;;;;;;23.26;69.78;100836.38;5067949;27;101945;-56
2022/08/06 09:01:59;;;;;;;9.20;8.40;;;;;;;23.23;69.64;100840.69;5078482;27;102216;-56
2022/08/06 09:04:26;;;;;;;11.27;10.27;;;;;;;23.23;69.73;100826.81;5087143;27;103873;-56
2022/08/06 09:06:55;;;;;;;10.73;9.70;;;;;;;23.23;69.69;100829.59;5099169;27;101838;-56
2022/08/06 09:09:21;;;;;;;;;;;;;;;23.24;69.73;100835.94;5099400;27;102190;-56
2022/08/06 09:11:48;;;;;;;10.82;9.82;;;;;;;23.24;69.52;100828.44;5084884;27;102281;-56
2022/08/06 09:14:15;;;;;;;9.52;8.73;;;;;;;23.23;69.73;100829.59;5093192;27;103921;-56
2022/08/06 09:16:41;;;;;;;9.07;8.27;;;;;;;23.24;69.40;100825.66;5098796;27;102268;-56
2022/08/06 09:19:08;;;;;;;11.75;8.30;;;;;;;23.23;69.82;100824.03;5082821;27;101902;-56
2022/08/06 09:21:35;;;;;;;8.35;7.65;;;;;;;23.24;69.49;100824.84;5094929;27;102126;-56
2022/08/06 09:24:04;;;;;;;9.68;8.77;;;;;;;23.25;69.67;100818.91;5081227;27;103852;-56
2022/08/06 09:26:33;;;;;;;30.00;9.18;;;;;;;23.24;69.39;100817.31;5077634;27;102267;-56
2022/08/06 09:29:00;;;;;;;19.45;9.55;;;;;;;23.24;69.06;100827.63;5077659;27;102345;-56
2022/08/06 09:31:27;;;;;;;12.05;8.63;;;;;;;23.22;69.63;100814.09;5078639;27;102245;-56
2022/08/06 09:33:55;;;;;;;11.80;8.68;;;;;;;23.23;69.62;100814.91;5077427;27;103847;-56
2022/08/06 09:36:22;;;;;;;9.02;8.15;;;;;;;23.23;69.32;100804.59;5077880;27;102053;-57
2022/08/06 09:38:50;;;;;;;9.55;8.65;;;;;;;23.21;69.39;100818.03;5077346;27;101938;-56
2022/08/06 09:41:19;;;;;;;9.93;8.93;;;;;;;23.21;69.35;100806.13;5078844;27;102178;-56
2022/08/06 09:43:48;;;;;;;10.40;9.50;;;;;;;23.19;69.37;100809.25;5096178;27;104084;-56
2022/08/06 09:46:16;;;;;;;11.02;9.63;;;;;;;23.19;69.53;100809.25;5077982;27;102054;-56
2022/08/06 09:48:57;;;;;;;10.15;9.25;;;;;;;23.17;69.60;100811.56;5076880;27;102346;-56
2022/08/06 09:51:24;;;;;;;10.13;9.15;;;;;;;23.16;69.55;100801.63;5078180;27;102086;-56
2022/08/06 09:53:53;;;;;;;10.43;9.43;;;;;;;23.17;69.68;100805.22;5076736;27;103955;-56
2022/08/06 09:56:21;;;;;;;9.98;9.15;;;;;;;23.17;69.43;100810.75;5078068;27;102422;-56
2022/08/06 09:58:48;;;;;;;10.02;8.95;;;;;;;23.16;69.38;100804.41;5077399;27;102172;-56
2022/08/06 10:01:16;;;;;;;9.95;9.05;;;;;;;23.17;69.53;100800.47;5078448;27;102071;-56
2022/08/06 10:03:43;;;;;;;8.85;7.95;;;;;;;23.18;69.08;100807.63;5077111;27;104083;-56
2022/08/06 10:06:11;;;;;;;9.45;8.65;;;;;;;23.18;69.32;100817.91;5076967;27;102137;-55
2022/08/06 10:08:38;;;;;;;9.93;8.93;;;;;;;23.16;69.32;100815.50;5077077;27;102571;-56
2022/08/06 10:11:06;;;;;;;9.35;8.55;;;;;;;23.17;69.43;100817.13;5077890;27;102580;-56
2022/08/06 10:13:35;;;;;;;9.40;8.50;;;;;;;23.18;69.06;100804.03;5076680;27;104092;-56
2022/08/06 10:16:15;;;;;;;10.30;9.30;;;;;;;23.15;69.24;100800.03;5077736;27;102054;-56
2022/08/06 10:18:43;;;;;;;9.15;8.35;;;;;;;23.16;69.18;100798.06;5077164;27;102092;-56
2022/08/06 10:21:11;;;;;;;8.60;7.80;;;;;;;23.15;69.25;100797.25;5078020;27;102152;-57
2022/08/06 10:23:39;;;;;;;9.70;8.85;;;;;;;23.17;69.29;100794.09;5076399;27;104110;-56
2022/08/06 10:26:08;;;;;;;9.90;9.02;;;;;;;23.14;69.35;100789.25;5077313;27;103888;-56
2022/08/06 10:28:37;;;;;;;9.35;8.55;;;;;;;23.11;69.31;100782.44;5071901;27;102263;-56
2022/08/06 10:31:06;;;;;;;10.10;9.10;;;;;;;23.10;69.49;100800.25;5074861;27;102210;-56
2022/08/06 10:33:39;;;;;;;8.48;7.68;;;;;;;23.15;69.37;100793.63;5073886;27;104257;-56
2022/08/06 10:36:09;;;;;;;9.77;8.85;;;;;;;23.13;69.40;100791.22;5076309;27;102731;-56
2022/08/06 10:38:40;;;;;;;9.27;8.48;;;;;;;23.12;69.13;100797.16;5076133;27;102511;-56
2022/08/06 10:41:10;;;;;;;9.55;8.65;;;;;;;23.12;69.25;100789.63;5075903;27;102205;-56
2022/08/06 10:43:39;;;;;;;10.02;9.13;;;;;;;23.09;69.51;100787.56;5081301;27;103820;-56
2022/08/06 10:46:15;;;;;;;9.90;9.00;;;;;;;23.07;69.25;100789.06;5074029;27;102371;-56
2022/08/06 10:48:44;;;;;;;9.85;8.95;;;;;;;23.06;69.49;100793.81;5083667;27;102381;-56
2022/08/06 10:51:11;;;;;;;10.48;9.45;;;;;;;23.06;69.84;100787.47;5079024;27;102661;-56
2022/08/06 10:53:40;;;;;;;9.50;8.70;;;;;;;23.05;69.40;100786.66;5073066;27;103880;-56
2022/08/06 10:56:11;;;;;;;9.43;8.73;;;;;;;23.06;69.59;100782.72;5073442;27;102238;-56
2022/08/06 10:58:39;;;;;;;9.43;8.52;;;;;;;23.08;69.28;100797.06;5074567;27;102400;-56
2022/08/06 11:01:08;;;;;;;9.63;8.70;;;;;;;23.09;69.21;100781.19;5072394;27;102145;-56
2022/08/06 11:04:05;;;;;;;9.68;8.88;;;;;;;23.07;69.55;100784.31;5058295;27;104204;-56
2022/08/06 11:07:00;;;;;;;10.60;9.60;;;;;;;23.04;70.16;100785.03;5065112;27;102535;-56
2022/08/06 11:09:53;;;;;;;9.52;8.63;;;;;;;23.03;69.57;100780.63;5092232;27;102388;-56
2022/08/06 11:12:34;;;;;;;9.80;8.90;;;;;;;23.05;69.64;100786.66;5081169;27;102423;-56
2022/08/06 11:15:05;;;;;;;9.27;8.48;;;;;;;23.03;69.44;100784.22;5079435;27;103942;-56
2022/08/06 11:17:44;;;;;;;9.13;8.38;;;;;;;23.04;69.57;100776.69;5080292;27;102243;-56
2022/08/06 11:20:36;;;;;;;9.40;8.50;;;;;;;23.02;70.37;100782.59;5079820;27;102148;-56
2022/08/06 11:23:05;;;;;;;9.05;8.25;;;;;;;23.00;70.07;100776.59;5080094;27;102403;-56
2022/08/06 11:25:39;;;;;;;9.68;8.88;;;;;;;23.00;70.04;100773.81;5079267;27;104042;-56
2022/08/06 11:28:07;;;;;;;8.95;8.15;;;;;;;23.00;70.23;100778.56;5079945;27;102326;-56